Time;durP1;ratioP1;P1;durP2;ratioP2;P2;SDS_P1;SDS_P2;PMS_P1;PMS_P2;Temp;Humidity;BMP_temperature;BMP_pressure;BME280_temperature;BME280_humidity;BME280_pressure;Samples;Min_cycle;Max_cycle;Signal;HPM_P1;HPM_P2
2021/09/18 00:01:19;;;;;;;3.38;2.70;;;24.60;60.70;;;;;;4169080;28;20046;-45
2021/09/18 00:03:21;;;;;;;4.47;2.83;;;24.60;60.50;;;;;;4169042;28;20053;-44
2021/09/18 00:05:23;;;;;;;4.15;3.20;;;24.60;60.70;;;;;;4168929;28;20054;-45
2021/09/18 00:07:26;;;;;;;3.00;2.67;;;24.60;60.40;;;;;;4168856;28;20082;-46
2021/09/18 00:09:30;;;;;;;5.78;3.03;;;24.60;60.60;;;;;;4168872;28;20069;-46
2021/09/18 00:11:34;;;;;;;3.83;2.70;;;24.60;60.80;;;;;;4168809;28;20070;-48
2021/09/18 00:13:39;;;;;;;3.28;2.75;;;24.60;60.90;;;;;;4168835;28;20038;-45
2021/09/18 00:15:42;;;;;;;3.17;2.80;;;24.60;60.50;;;;;;4168632;28;20050;-44
2021/09/18 00:17:44;;;;;;;4.32;3.00;;;24.60;60.80;;;;;;4168822;28;20069;-45
2021/09/18 00:19:46;;;;;;;2.90;2.67;;;24.60;60.70;;;;;;4168748;28;20077;-47
2021/09/18 00:21:48;;;;;;;3.90;2.95;;;24.60;60.80;;;;;;4168761;28;20085;-45
2021/09/18 00:23:50;;;;;;;3.67;3.08;;;24.60;60.70;;;;;;4168541;28;20111;-46
2021/09/18 00:25:52;;;;;;;4.85;2.80;;;24.60;60.70;;;;;;4168632;28;20109;-48
2021/09/18 00:27:55;;;;;;;3.40;2.85;;;24.60;60.70;;;;;;4168350;28;20060;-50
2021/09/18 00:30:00;;;;;;;3.30;2.83;;;24.60;60.60;;;;;;4168627;28;20042;-49
2021/09/18 00:32:03;;;;;;;3.83;3.30;;;24.60;60.60;;;;;;4151699;28;20050;-51
2021/09/18 00:34:05;;;;;;;5.10;2.97;;;24.60;60.50;;;;;;4167874;28;20080;-48
2021/09/18 00:36:07;;;;;;;3.30;2.88;;;24.60;60.60;;;;;;4167483;28;20107;-51
2021/09/18 00:38:09;;;;;;;4.20;2.92;;;24.60;60.70;;;;;;4167372;28;20038;-52
2021/09/18 00:40:12;;;;;;;4.10;2.97;;;24.50;60.70;;;;;;4155258;28;20112;-51
2021/09/18 00:42:14;;;;;;;4.88;3.05;;;24.60;60.60;;;;;;4134280;28;20039;-50
2021/09/18 00:44:19;;;;;;;5.28;3.08;;;24.60;60.60;;;;;;4133965;28;20043;-52
2021/09/18 00:46:22;;;;;;;3.80;3.00;;;24.60;60.60;;;;;;4150893;28;20105;-48
2021/09/18 00:48:24;;;;;;;3.53;3.17;;;24.60;60.60;;;;;;4133938;28;20058;-49
2021/09/18 00:50:26;;;;;;;5.53;3.25;;;24.60;60.60;;;;;;4153250;28;20070;-49
2021/09/18 00:52:29;;;;;;;4.18;2.72;;;24.60;60.70;;;;;;4167027;28;20050;-51
2021/09/18 00:54:30;;;;;;;3.45;3.10;;;24.50;60.60;;;;;;4167188;28;20046;-51
2021/09/18 00:56:33;;;;;;;3.60;3.25;;;24.50;60.60;;;;;;4167028;28;20046;-49
2021/09/18 00:58:35;;;;;;;5.10;3.42;;;24.50;60.60;;;;;;4166947;28;20050;-49
2021/09/18 01:00:37;;;;;;;3.40;3.10;;;24.50;60.60;;;;;;4166881;28;20038;-54
2021/09/18 01:02:40;;;;;;;4.10;2.92;;;24.50;60.60;;;;;;4166903;28;20046;-50
2021/09/18 01:04:44;;;;;;;4.68;3.20;;;24.60;60.60;;;;;;4166176;28;20053;-51
2021/09/18 01:06:46;;;;;;;4.35;3.08;;;24.60;60.60;;;;;;4150725;28;20078;-50
2021/09/18 01:08:53;;;;;;;3.85;3.45;;;24.60;60.60;;;;;;4150714;28;20098;-52
2021/09/18 01:10:55;;;;;;;5.20;3.55;;;24.60;60.30;;;;;;4133778;28;20114;-52
2021/09/18 01:13:03;;;;;;;7.30;3.67;;;24.70;60.00;;;;;;4160125;28;20050;-49
2021/09/18 01:15:06;;;;;;;5.18;3.47;;;24.70;60.10;;;;;;4166790;28;20034;-50
2021/09/18 01:17:09;;;;;;;5.03;4.05;;;24.70;59.90;;;;;;4154662;28;20101;-49
2021/09/18 01:19:11;;;;;;;6.13;3.38;;;24.80;59.80;;;;;;4150495;28;20052;-53
2021/09/18 01:21:15;;;;;;;6.72;3.50;;;24.80;59.90;;;;;;4150441;28;20108;-52
2021/09/18 01:23:23;;;;;;;3.92;3.47;;;24.80;59.80;;;;;;4150221;28;20050;-48
2021/09/18 01:25:27;;;;;;;5.82;3.50;;;24.80;60.00;;;;;;4150101;28;20050;-47
2021/09/18 01:27:30;;;;;;;4.57;3.53;;;24.80;59.80;;;;;;4150197;28;20057;-48
2021/09/18 01:29:32;;;;;;;6.32;3.70;;;24.80;59.80;;;;;;4150481;28;20058;-49
2021/09/18 01:31:44;;;;;;;4.72;4.05;;;24.70;59.80;;;;;;4159221;28;20050;-50
2021/09/18 01:33:49;;;;;;;5.85;3.30;;;24.80;59.80;;;;;;4155173;28;20046;-51
2021/09/18 01:35:52;;;;;;;4.65;3.58;;;24.80;59.60;;;;;;4150257;28;20073;-50
2021/09/18 01:37:54;;;;;;;4.35;3.75;;;24.80;59.70;;;;;;4150321;28;20039;-48
2021/09/18 01:39:56;;;;;;;5.35;4.07;;;24.80;59.80;;;;;;4149370;28;20133;-48
2021/09/18 01:41:59;;;;;;;5.40;3.35;;;24.80;59.70;;;;;;4133314;28;20043;-48
2021/09/18 01:44:01;;;;;;;5.20;3.67;;;24.70;59.70;;;;;;4150075;28;20056;-48
2021/09/18 01:46:03;;;;;;;5.65;4.05;;;24.80;59.70;;;;;;4151908;28;20076;-51
2021/09/18 01:48:08;;;;;;;4.75;3.47;;;24.80;59.70;;;;;;4166214;28;20061;-49
2021/09/18 01:50:42;;;;;;;6.13;4.03;;;24.80;59.60;;;;;;4166383;28;20052;-50
2021/09/18 01:52:47;;;;;;;7.07;3.75;;;24.80;59.90;;;;;;4166033;28;20038;-48
2021/09/18 01:54:51;;;;;;;4.78;3.42;;;24.80;59.80;;;;;;4165822;28;20064;-51
2021/09/18 01:56:53;;;;;;;5.18;3.70;;;24.80;59.70;;;;;;4166207;28;20049;-47
2021/09/18 01:58:55;;;;;;;5.90;3.60;;;24.80;59.70;;;;;;4166135;28;20105;-48
2021/09/18 02:01:00;;;;;;;4.60;3.20;;;24.80;59.60;;;;;;4165953;28;20081;-47
2021/09/18 02:03:03;;;;;;;4.72;3.10;;;24.70;59.90;;;;;;4165956;28;20042;-48
2021/09/18 02:05:07;;;;;;;7.93;3.67;;;24.70;60.20;;;;;;4166051;28;20109;-51
2021/09/18 02:07:10;;;;;;;6.90;3.40;;;24.70;60.00;;;;;;4153270;28;20043;-54
2021/09/18 02:09:13;;;;;;;10.07;3.45;;;24.70;60.30;;;;;;4149729;28;20455;-50
2021/09/18 02:11:15;;;;;;;3.65;2.70;;;24.60;60.00;;;;;;4149724;28;20073;-51
2021/09/18 02:13:19;;;;;;;5.18;3.63;;;24.60;60.40;;;;;;4149990;28;20049;-50
2021/09/18 02:15:22;;;;;;;3.47;3.17;;;24.60;59.90;;;;;;4132861;28;20066;-50
2021/09/18 02:17:25;;;;;;;4.60;2.85;;;24.60;60.30;;;;;;4149776;28;20074;-52
2021/09/18 02:19:27;;;;;;;3.83;2.60;;;24.60;60.30;;;;;;4149619;28;20062;-49
2021/09/18 02:21:29;;;;;;;4.40;3.55;;;24.60;60.30;;;;;;4149743;28;20078;-50
2021/09/18 02:23:32;;;;;;;6.03;3.88;;;24.60;60.30;;;;;;4150367;28;20042;-51
2021/09/18 02:25:34;;;;;;;3.83;3.20;;;24.60;60.10;;;;;;4150264;28;20056;-48
2021/09/18 02:27:37;;;;;;;5.80;2.70;;;24.60;60.30;;;;;;4150478;28;20072;-49
2021/09/18 02:29:39;;;;;;;11.77;3.85;;;24.60;60.10;;;;;;4150364;28;20482;-49
2021/09/18 02:31:42;;;;;;;8.90;3.40;;;24.60;59.90;;;;;;4150548;28;20038;-48
2021/09/18 02:33:44;;;;;;;5.72;3.80;;;24.60;60.10;;;;;;4150259;28;20042;-54
2021/09/18 02:35:49;;;;;;;4.30;3.13;;;24.60;60.10;;;;;;4150246;28;20042;-50
2021/09/18 02:37:53;;;;;;;5.25;2.80;;;24.50;60.00;;;;;;4150543;28;20490;-54
2021/09/18 02:39:55;;;;;;;6.95;3.55;;;24.60;60.10;;;;;;4150159;28;20467;-51
2021/09/18 02:41:58;;;;;;;4.10;3.03;;;24.50;59.90;;;;;;4150102;28;20058;-54
2021/09/18 02:44:01;;;;;;;5.00;3.25;;;24.50;60.10;;;;;;4150164;28;20774;-51
2021/09/18 02:46:03;;;;;;;5.22;3.20;;;24.50;60.10;;;;;;4150133;28;20054;-54
2021/09/18 02:48:06;;;;;;;5.72;3.10;;;24.50;60.00;;;;;;4149942;28;20043;-54
2021/09/18 02:50:11;;;;;;;8.68;3.70;;;24.50;59.80;;;;;;4150002;28;20106;-54
2021/09/18 02:52:13;;;;;;;5.47;3.05;;;24.50;60.00;;;;;;4149411;28;20078;-53
2021/09/18 02:54:16;;;;;;;5.50;3.30;;;24.60;59.90;;;;;;4150067;28;20042;-53
2021/09/18 02:56:21;;;;;;;10.55;4.50;;;24.50;59.80;;;;;;4150075;28;20138;-51
2021/09/18 02:58:23;;;;;;;5.57;4.30;;;24.50;59.80;;;;;;4149883;28;20051;-48
2021/09/18 03:00:26;;;;;;;5.07;3.58;;;24.60;59.70;;;;;;4149929;28;20070;-51
2021/09/18 03:02:28;;;;;;;5.78;3.88;;;24.50;59.50;;;;;;4149942;28;20042;-48
2021/09/18 03:04:32;;;;;;;4.30;3.13;;;24.50;60.00;;;;;;4150011;28;20043;-50
2021/09/18 03:06:34;;;;;;;4.82;3.13;;;24.50;60.00;;;;;;4150013;28;20345;-49
2021/09/18 03:08:38;;;;;;;7.50;3.95;;;24.50;60.10;;;;;;4166062;28;20499;-48
2021/09/18 03:10:40;;;;;;;6.93;4.15;;;24.60;60.00;;;;;;4166263;28;20050;-47
2021/09/18 03:12:43;;;;;;;7.93;3.20;;;24.50;59.90;;;;;;4149183;28;20089;-47
2021/09/18 03:14:45;;;;;;;5.20;3.30;;;24.50;59.90;;;;;;4164880;28;20068;-47
2021/09/18 03:16:48;;;;;;;6.25;3.85;;;24.50;60.00;;;;;;4166199;28;20069;-46
2021/09/18 03:18:50;;;;;;;11.07;3.83;;;24.50;60.00;;;;;;4166081;28;20042;-48
2021/09/18 03:20:52;;;;;;;4.57;3.42;;;24.50;60.00;;;;;;4165498;28;20050;-47
2021/09/18 03:22:55;;;;;;;6.15;3.78;;;24.50;59.90;;;;;;4165098;28;20048;-48
2021/09/18 03:24:57;;;;;;;4.28;3.30;;;24.50;60.00;;;;;;4161315;28;20053;-47
2021/09/18 03:27:00;;;;;;;6.30;3.95;;;24.50;59.90;;;;;;4158348;28;20049;-48
2021/09/18 03:29:03;;;;;;;6.78;4.45;;;24.50;59.80;;;;;;4148808;28;20053;-47
2021/09/18 03:31:05;;;;;;;7.25;4.28;;;24.50;59.70;;;;;;4156477;28;20038;-50
2021/09/18 03:33:08;;;;;;;4.70;3.75;;;24.50;59.70;;;;;;4165163;28;20094;-50
2021/09/18 03:35:10;;;;;;;10.38;4.35;;;24.50;59.90;;;;;;4165092;28;20097;-48
2021/09/18 03:37:13;;;;;;;5.35;3.78;;;24.50;59.90;;;;;;4165066;28;20113;-53
2021/09/18 03:39:16;;;;;;;7.65;3.67;;;24.50;59.90;;;;;;4165070;28;20046;-51
2021/09/18 03:41:19;;;;;;;4.85;4.18;;;24.50;59.90;;;;;;4147951;28;20093;-51
2021/09/18 03:43:21;;;;;;;7.13;3.83;;;24.50;59.80;;;;;;4164962;28;20054;-49
2021/09/18 03:45:24;;;;;;;8.70;4.85;;;24.50;60.00;;;;;;4147836;28;20047;-51
2021/09/18 03:47:26;;;;;;;6.10;3.92;;;24.50;59.80;;;;;;4164984;28;20042;-52
2021/09/18 03:49:29;;;;;;;8.82;3.90;;;24.50;59.80;;;;;;4164842;28;20074;-52
2021/09/18 03:51:31;;;;;;;7.75;3.78;;;24.50;59.90;;;;;;4165099;28;20042;-52
2021/09/18 03:53:33;;;;;;;9.18;4.05;;;24.50;60.00;;;;;;4164946;28;20046;-48
2021/09/18 03:55:36;;;;;;;5.15;3.83;;;24.50;59.90;;;;;;4164927;28;20049;-49
2021/09/18 03:57:41;;;;;;;8.45;4.65;;;24.50;59.90;;;;;;4164523;28;20034;-52
2021/09/18 03:59:45;;;;;;;7.43;4.15;;;24.50;59.80;;;;;;4148001;28;20047;-49
2021/09/18 04:01:47;;;;;;;7.60;4.75;;;24.50;59.70;;;;;;4156952;28;20042;-55
2021/09/18 04:03:50;;;;;;;7.78;5.20;;;24.50;59.70;;;;;;4162745;28;20077;-56
2021/09/18 04:05:52;;;;;;;11.73;6.53;;;24.50;59.30;;;;;;4167938;28;20097;-57
2021/09/18 04:07:54;;;;;;;6.35;4.88;;;24.50;59.40;;;;;;4167781;28;20054;-57
2021/09/18 04:09:57;;;;;;;11.88;6.22;;;24.40;59.80;;;;;;4163339;28;20046;-56
2021/09/18 04:12:02;;;;;;;10.25;6.28;;;24.40;59.70;;;;;;4163970;28;20102;-53
2021/09/18 04:14:04;;;;;;;13.68;7.82;;;24.40;59.60;;;;;;4167729;28;20076;-55
2021/09/18 04:16:07;;;;;;;14.88;7.72;;;24.40;59.70;;;;;;4150793;28;20047;-55
2021/09/18 04:18:09;;;;;;;10.50;6.32;;;24.40;59.90;;;;;;4167768;28;20057;-56
2021/09/18 04:20:12;;;;;;;11.57;6.75;;;24.40;60.30;;;;;;4167647;28;20046;-56
2021/09/18 04:22:14;;;;;;;11.63;7.25;;;24.40;59.90;;;;;;4167531;28;20076;-56
2021/09/18 04:24:16;;;;;;;9.82;6.50;;;24.40;60.10;;;;;;4167368;28;20058;-56
2021/09/18 04:26:19;;;;;;;11.65;6.03;;;24.40;59.90;;;;;;4154110;28;20050;-57
2021/09/18 04:28:21;;;;;;;12.52;6.28;;;24.40;60.20;;;;;;4150343;28;20077;-57
2021/09/18 04:30:23;;;;;;;9.35;6.57;;;24.40;60.00;;;;;;4151399;28;20102;-56
2021/09/18 04:32:26;;;;;;;13.57;6.53;;;24.40;59.80;;;;;;4151311;28;20105;-55
2021/09/18 04:34:28;;;;;;;13.45;7.43;;;24.40;60.00;;;;;;4134328;28;20042;-55
2021/09/18 04:36:30;;;;;;;8.73;6.10;;;24.40;60.20;;;;;;4150971;28;20046;-55
2021/09/18 04:38:33;;;;;;;7.90;5.25;;;24.40;60.30;;;;;;4133950;28;20047;-56
2021/09/18 04:40:35;;;;;;;13.10;7.40;;;24.40;60.40;;;;;;4151106;28;20081;-55
2021/09/18 04:42:37;;;;;;;8.20;5.57;;;24.40;60.20;;;;;;4151009;28;20057;-56
2021/09/18 04:44:40;;;;;;;8.90;6.78;;;24.40;60.40;;;;;;4151129;28;20042;-56
2021/09/18 04:46:43;;;;;;;15.38;6.40;;;24.40;60.10;;;;;;4151051;28;20102;-56
2021/09/18 04:48:45;;;;;;;5.97;4.85;;;24.40;60.30;;;;;;4150856;28;20057;-56
2021/09/18 04:50:47;;;;;;;8.38;6.43;;;24.40;60.50;;;;;;4163238;28;20046;-55
2021/09/18 04:52:49;;;;;;;12.80;7.85;;;24.40;60.10;;;;;;4167214;28;20048;-56
2021/09/18 04:54:53;;;;;;;11.52;7.22;;;24.40;60.20;;;;;;4150298;28;20040;-56
2021/09/18 04:56:55;;;;;;;5.95;4.70;;;24.40;60.10;;;;;;4167323;28;20050;-57
2021/09/18 04:58:58;;;;;;;10.65;5.50;;;24.30;60.50;;;;;;4166890;28;20113;-57
2021/09/18 05:01:00;;;;;;;6.35;3.80;;;24.40;60.50;;;;;;4167031;28;20046;-55
2021/09/18 05:03:03;;;;;;;7.18;5.47;;;24.30;60.60;;;;;;4167052;28;20114;-53
2021/09/18 05:05:06;;;;;;;8.88;5.88;;;24.40;60.20;;;;;;4166867;28;20073;-52
2021/09/18 05:07:15;;;;;;;8.50;5.57;;;24.40;60.60;;;;;;4166838;28;20054;-53
2021/09/18 05:09:17;;;;;;;11.52;7.75;;;24.40;60.40;;;;;;4163521;28;20058;-55
2021/09/18 05:11:19;;;;;;;13.48;4.95;;;24.40;60.10;;;;;;4152520;28;20043;-55
2021/09/18 05:13:21;;;;;;;11.30;7.40;;;24.40;60.50;;;;;;4150420;28;20047;-55
2021/09/18 05:15:24;;;;;;;7.72;4.07;;;24.40;60.20;;;;;;4149505;28;20042;-55
2021/09/18 05:17:26;;;;;;;7.00;4.75;;;24.30;60.50;;;;;;4150462;28;20042;-56
2021/09/18 05:19:28;;;;;;;10.95;4.70;;;24.40;60.50;;;;;;4133558;28;20047;-55
2021/09/18 05:21:31;;;;;;;9.30;5.57;;;24.30;60.00;;;;;;4150528;28;20051;-53
2021/09/18 05:23:33;;;;;;;7.93;5.30;;;24.40;60.30;;;;;;4150477;28;20069;-52
2021/09/18 05:25:36;;;;;;;9.82;5.15;;;24.30;60.50;;;;;;4166476;28;20057;-51
2021/09/18 05:27:38;;;;;;;6.95;4.10;;;24.40;60.80;;;;;;4166660;28;20102;-52
2021/09/18 05:29:43;;;;;;;8.48;4.85;;;24.40;60.80;;;;;;4166378;28;20077;-51
2021/09/18 05:31:45;;;;;;;5.20;4.18;;;24.40;60.90;;;;;;4166572;28;20042;-54
2021/09/18 05:33:48;;;;;;;10.43;6.60;;;24.40;61.00;;;;;;4166552;28;20068;-53
2021/09/18 05:35:52;;;;;;;;;;;24.40;60.30;;;;;;4165936;28;20075;-54
2021/09/18 05:37:55;;;;;;;7.15;5.13;;;24.40;60.90;;;;;;4166605;28;19921;-52
2021/09/18 05:46:34;;;;;;;11.10;6.15;;;24.40;61.00;;;;;;4217721;22;1422193;-50
2021/09/18 05:48:36;;;;;;;14.30;6.47;;;24.40;61.10;;;;;;4197118;28;20042;-50
2021/09/18 05:50:38;;;;;;;10.45;6.97;;;24.40;61.30;;;;;;4197136;28;20056;-53
2021/09/18 05:52:40;;;;;;;20.10;6.95;;;24.30;61.10;;;;;;4197153;28;20037;-52
2021/09/18 05:54:42;;;;;;;21.38;10.95;;;24.30;61.40;;;;;;4197037;28;20048;-49
2021/09/18 05:56:45;;;;;;;68.63;44.63;;;24.30;61.40;;;;;;4196995;28;20076;-53
2021/09/18 05:58:47;;;;;;;47.80;33.47;;;24.30;61.30;;;;;;4196954;28;20367;-52
2021/09/18 06:00:49;;;;;;;31.85;22.60;;;24.30;61.20;;;;;;4196877;28;20104;-53
2021/09/18 06:02:51;;;;;;;34.08;21.23;;;24.20;61.00;;;;;;4196903;28;20512;-53
2021/09/18 06:04:54;;;;;;;41.30;21.20;;;24.30;61.00;;;;;;4196903;28;20047;-54
2021/09/18 06:06:56;;;;;;;32.28;21.25;;;24.30;60.90;;;;;;4179476;28;20037;-55
2021/09/18 06:08:58;;;;;;;29.05;17.30;;;24.20;61.10;;;;;;4196922;28;20045;-50
2021/09/18 06:11:00;;;;;;;27.50;18.73;;;24.30;60.70;;;;;;4196728;28;20041;-52
2021/09/18 06:13:03;;;;;;;28.80;16.55;;;24.20;61.00;;;;;;4196863;28;20045;-47
2021/09/18 06:15:06;;;;;;;28.60;14.75;;;24.20;60.80;;;;;;4163150;28;20117;-49
2021/09/18 06:17:08;;;;;;;28.73;16.55;;;24.20;60.70;;;;;;4196719;28;20048;-48
2021/09/18 06:19:11;;;;;;;30.25;15.32;;;24.20;60.70;;;;;;4196734;28;20048;-52
2021/09/18 06:21:20;;;;;;;26.92;15.43;;;24.20;60.70;;;;;;4196518;28;20041;-51
2021/09/18 06:23:22;;;;;;;25.08;14.43;;;24.20;60.80;;;;;;4196661;28;20072;-46
2021/09/18 06:25:36;;;;;;;22.75;13.20;;;24.20;60.60;;;;;;4179237;28;20042;-48
2021/09/18 06:27:40;;;;;;;22.65;12.95;;;24.20;60.70;;;;;;4196571;28;20049;-50
2021/09/18 06:29:42;;;;;;;23.08;13.85;;;24.20;60.50;;;;;;4196515;28;20041;-52
2021/09/18 06:31:44;;;;;;;24.17;12.13;;;24.30;60.80;;;;;;4196524;28;20068;-51
2021/09/18 06:33:46;;;;;;;23.95;13.63;;;24.20;60.50;;;;;;4196499;28;20045;-46
2021/09/18 06:35:48;;;;;;;22.60;12.13;;;24.20;60.90;;;;;;4196463;28;20049;-51
2021/09/18 06:37:50;;;;;;;21.67;11.32;;;24.20;60.60;;;;;;4196414;28;20056;-53
2021/09/18 06:39:52;;;;;;;19.88;11.75;;;24.20;60.50;;;;;;4196399;28;20045;-49
2021/09/18 06:41:54;;;;;;;18.33;10.85;;;24.20;60.30;;;;;;4196352;28;20045;-46
2021/09/18 06:43:57;;;;;;;17.92;11.02;;;24.20;60.30;;;;;;4196327;28;20065;-46
2021/09/18 06:45:59;;;;;;;16.63;10.45;;;24.20;60.30;;;;;;4196359;28;20083;-48
2021/09/18 06:48:01;;;;;;;20.58;10.85;;;24.30;60.20;;;;;;4196048;28;20059;-44
2021/09/18 06:50:05;;;;;;;18.65;9.98;;;24.20;60.20;;;;;;4196231;28;20048;-55
2021/09/18 06:52:08;;;;;;;17.73;11.40;;;24.30;60.50;;;;;;4194376;28;20045;-54
2021/09/18 06:54:10;;;;;;;15.25;10.18;;;24.20;60.40;;;;;;4167757;28;20097;-53
2021/09/18 06:56:12;;;;;;;18.92;10.50;;;24.30;60.30;;;;;;4167927;28;20114;-55
2021/09/18 06:58:14;;;;;;;14.65;10.38;;;24.30;60.40;;;;;;4185223;28;20053;-54
2021/09/18 07:00:16;;;;;;;16.10;10.70;;;24.20;60.30;;;;;;4185008;28;20072;-54
2021/09/18 07:02:18;;;;;;;20.80;10.23;;;24.20;60.40;;;;;;4184940;28;20072;-54
2021/09/18 07:04:21;;;;;;;17.25;10.30;;;24.20;60.40;;;;;;4151508;28;20074;-50
2021/09/18 07:06:23;;;;;;;18.75;10.73;;;24.20;60.50;;;;;;4184495;28;20041;-52
2021/09/18 07:08:25;;;;;;;15.07;9.90;;;24.20;60.50;;;;;;4183986;28;20033;-52
2021/09/18 07:10:27;;;;;;;15.52;9.52;;;24.20;60.50;;;;;;4174833;28;20077;-49
2021/09/18 07:12:29;;;;;;;15.20;9.52;;;24.20;60.60;;;;;;4151405;28;20082;-51
2021/09/18 07:14:31;;;;;;;17.45;9.90;;;24.20;60.60;;;;;;4168298;28;20046;-52
2021/09/18 07:16:33;;;;;;;21.35;10.02;;;24.20;60.50;;;;;;4168344;28;20054;-53
2021/09/18 07:18:36;;;;;;;13.80;9.68;;;24.20;60.50;;;;;;4168326;28;20045;-54
2021/09/18 07:20:38;;;;;;;22.08;10.48;;;24.20;60.40;;;;;;4168273;28;20078;-48
2021/09/18 07:22:40;;;;;;;18.85;10.18;;;24.20;60.50;;;;;;4174021;28;20038;-56
2021/09/18 07:24:42;;;;;;;16.33;10.68;;;24.20;60.70;;;;;;4184411;28;20042;-57
2021/09/18 07:26:45;;;;;;;69.45;50.17;;;24.20;60.60;;;;;;4184650;28;20045;-57
2021/09/18 07:28:47;;;;;;;26.30;19.75;;;24.20;60.70;;;;;;4184673;28;20046;-52
2021/09/18 07:30:49;;;;;;;43.30;34.42;;;24.20;60.60;;;;;;4184635;28;20045;-51
2021/09/18 07:32:51;;;;;;;41.35;32.53;;;24.20;60.90;;;;;;4184098;28;20086;-51
2021/09/18 07:34:53;;;;;;;40.20;31.60;;;24.20;61.00;;;;;;4184225;28;20072;-53
2021/09/18 07:36:55;;;;;;;42.55;31.85;;;24.20;61.00;;;;;;4184063;28;20088;-49
2021/09/18 07:38:57;;;;;;;37.13;28.55;;;24.20;60.90;;;;;;4184063;28;20072;-52
2021/09/18 07:40:59;;;;;;;42.50;27.02;;;24.20;60.90;;;;;;4184284;28;20069;-49
2021/09/18 07:43:02;;;;;;;37.83;24.10;;;24.20;60.80;;;;;;4184358;28;20068;-51
2021/09/18 07:45:05;;;;;;;38.85;23.75;;;24.20;60.50;;;;;;4184371;28;20048;-50
2021/09/18 07:47:07;;;;;;;26.27;19.83;;;24.20;60.60;;;;;;4184167;28;20045;-50
2021/09/18 07:49:09;;;;;;;31.88;23.05;;;24.20;60.50;;;;;;4184255;28;20053;-47
2021/09/18 07:51:11;;;;;;;32.10;19.60;;;24.20;60.60;;;;;;4184259;28;20049;-47
2021/09/18 07:53:13;;;;;;;27.90;19.77;;;24.20;60.70;;;;;;4184321;28;20064;-51
2021/09/18 07:55:15;;;;;;;24.58;17.08;;;24.20;60.60;;;;;;4184207;28;20069;-53
2021/09/18 07:57:38;;;;;;;19.73;16.25;;;24.20;60.40;;;;;;4184072;28;20069;-51
2021/09/18 07:59:41;;;;;;;26.25;17.80;;;24.20;60.40;;;;;;4166958;28;20038;-48
2021/09/18 08:01:43;;;;;;;22.98;15.73;;;24.20;60.50;;;;;;4183994;28;20048;-46
2021/09/18 08:03:45;;;;;;;22.02;15.75;;;24.20;60.30;;;;;;4183601;28;20068;-51
2021/09/18 08:05:47;;;;;;;20.30;15.48;;;24.20;60.30;;;;;;4183482;28;20042;-50
2021/09/18 08:07:50;;;;;;;20.08;14.20;;;24.20;60.30;;;;;;4184095;28;20042;-48
2021/09/18 08:09:55;;;;;;;27.17;14.15;;;24.20;60.30;;;;;;4183942;28;20042;-46
2021/09/18 08:11:58;;;;;;;20.92;13.18;;;24.30;60.30;;;;;;4183953;28;20095;-55
2021/09/18 08:14:02;;;;;;;16.00;13.73;;;24.30;60.20;;;;;;4183909;28;20041;-54
2021/09/18 08:16:05;;;;;;;17.83;12.30;;;24.30;60.30;;;;;;4166675;28;20070;-47
2021/09/18 08:18:07;;;;;;;18.85;13.48;;;24.30;60.40;;;;;;4183796;28;20046;-49
2021/09/18 08:20:10;;;;;;;21.67;12.68;;;24.30;60.30;;;;;;4183826;28;20049;-49
2021/09/18 08:22:13;;;;;;;21.42;11.13;;;24.30;60.40;;;;;;4183770;28;20051;-54
2021/09/18 08:24:15;;;;;;;19.55;10.25;;;24.30;60.60;;;;;;4166459;28;20077;-55
2021/09/18 08:26:17;;;;;;;22.67;9.30;;;24.30;60.50;;;;;;4166475;28;20070;-48
2021/09/18 08:28:19;;;;;;;20.23;10.90;;;24.30;60.50;;;;;;4166505;28;20049;-51
2021/09/18 08:30:23;;;;;;;17.42;10.63;;;24.30;60.30;;;;;;4183627;28;20038;-51
2021/09/18 08:32:25;;;;;;;20.47;10.93;;;24.30;60.00;;;;;;4183643;28;20046;-52
2021/09/18 08:34:27;;;;;;;23.23;10.52;;;24.30;60.40;;;;;;4183608;28;20301;-52
2021/09/18 08:36:29;;;;;;;19.48;11.02;;;24.30;60.40;;;;;;4183477;28;20066;-54
2021/09/18 08:38:31;;;;;;;24.88;11.40;;;24.30;60.40;;;;;;4183570;28;20072;-49
2021/09/18 08:40:37;;;;;;;22.77;10.90;;;24.30;60.00;;;;;;4183464;28;20056;-53
2021/09/18 08:42:42;;;;;;;20.65;10.75;;;24.30;60.20;;;;;;4149921;28;20066;-50
2021/09/18 08:47:42;;;;;;;22.52;10.45;;;24.40;59.90;;;;;;4151123;28;20057;-54
2021/09/18 08:49:44;;;;;;;18.33;10.73;;;24.40;60.00;;;;;;4149246;28;20133;-58
2021/09/18 08:51:47;;;;;;;16.98;10.95;;;24.30;59.80;;;;;;4132140;28;20042;-58
2021/09/18 08:53:49;;;;;;;18.25;10.73;;;24.30;60.20;;;;;;4148664;28;20038;-57
2021/09/18 08:55:55;;;;;;;18.27;10.98;;;24.30;60.20;;;;;;4148570;28;20054;-53
2021/09/18 08:57:58;;;;;;;52.63;12.10;;;24.40;60.70;;;;;;4147913;28;20050;-56
2021/09/18 09:00:00;;;;;;;18.00;9.00;;;24.40;61.00;;;;;;4149573;28;20063;-56
2021/09/18 09:02:14;;;;;;;23.60;10.63;;;24.50;60.30;;;;;;4150330;28;20046;-56
2021/09/18 09:04:17;;;;;;;20.55;10.25;;;24.60;60.30;;;;;;4150297;28;20046;-57
2021/09/18 09:06:19;;;;;;;18.08;10.25;;;24.60;60.20;;;;;;4150270;28;20038;-56
2021/09/18 09:08:22;;;;;;;16.65;9.00;;;24.60;60.20;;;;;;4149269;28;20069;-56
2021/09/18 09:10:27;;;;;;;20.73;9.48;;;24.60;60.30;;;;;;4154055;28;20068;-45
2021/09/18 09:12:38;;;;;;;20.25;9.43;;;24.60;60.30;;;;;;4165589;28;20042;-46
2021/09/18 09:14:44;;;;;;;12.48;9.05;;;24.70;60.30;;;;;;4151361;28;20076;-49
2021/09/18 09:16:59;;;;;;;12.50;9.15;;;24.70;60.30;;;;;;4146033;28;20046;-50
2021/09/18 09:19:18;;;;;;;14.60;9.88;;;24.70;60.20;;;;;;4165019;28;20038;-48
2021/09/18 09:21:22;;;;;;;14.85;9.18;;;24.70;60.30;;;;;;4160510;28;20038;-48
2021/09/18 09:23:24;;;;;;;14.43;8.45;;;24.70;60.10;;;;;;4132256;28;20069;-52
2021/09/18 09:25:31;;;;;;;12.23;7.95;;;24.70;60.10;;;;;;4146354;28;20064;-50
2021/09/18 09:27:33;;;;;;;19.27;10.00;;;24.70;60.10;;;;;;4163676;28;20065;-46
2021/09/18 09:30:03;;;;;;;15.55;8.68;;;24.70;60.40;;;;;;4158492;28;20037;-49
2021/09/18 09:32:43;;;;;;;19.00;10.55;;;24.70;60.30;;;;;;4134522;28;20070;-53
2021/09/18 09:34:52;;;;;;;24.08;9.88;;;24.60;59.80;;;;;;4150994;28;20038;-48
2021/09/18 09:36:54;;;;;;;14.07;9.02;;;24.50;60.60;;;;;;4164801;28;20073;-50
2021/09/18 09:38:59;;;;;;;19.65;9.48;;;24.60;60.50;;;;;;4165005;28;20042;-48
2021/09/18 09:41:02;;;;;;;22.42;9.52;;;24.70;60.30;;;;;;4148199;28;20046;-48
2021/09/18 09:43:06;;;;;;;16.05;8.73;;;24.70;60.20;;;;;;4152471;28;20184;-48
2021/09/18 09:45:15;;;;;;;21.25;9.07;;;24.70;60.10;;;;;;4152592;28;20044;-49
2021/09/18 09:47:23;;;;;;;44.65;9.52;;;24.80;60.10;;;;;;4148551;28;20054;-48
2021/09/18 09:49:44;;;;;;;17.38;8.32;;;24.90;61.00;;;;;;4152564;28;20094;-47
2021/09/18 09:51:46;;;;;;;20.65;8.05;;;24.90;59.90;;;;;;4148101;28;20051;-49
2021/09/18 09:53:48;;;;;;;21.10;10.35;;;24.90;59.90;;;;;;4132553;28;20057;-47
2021/09/18 09:55:50;;;;;;;18.58;9.57;;;24.90;59.80;;;;;;4150116;28;20121;-48
2021/09/18 09:58:02;;;;;;;20.25;8.55;;;24.90;59.90;;;;;;4159757;28;20065;-50
2021/09/18 10:00:23;;;;;;;16.35;9.02;;;24.90;60.40;;;;;;4164884;28;20097;-45
2021/09/18 10:02:25;;;;;;;19.20;10.48;;;24.90;60.00;;;;;;4161965;28;20042;-47
2021/09/18 10:04:28;;;;;;;16.55;8.02;;;24.90;60.10;;;;;;4154569;28;20411;-47
2021/09/18 10:06:31;;;;;;;14.57;8.77;;;24.90;60.10;;;;;;4156952;28;20038;-48
2021/09/18 10:08:34;;;;;;;13.73;7.57;;;24.90;60.20;;;;;;4155504;28;20038;-46
2021/09/18 10:10:36;;;;;;;15.38;7.40;;;24.90;60.00;;;;;;4148286;28;20102;-46
2021/09/18 10:12:39;;;;;;;11.75;7.88;;;24.90;59.90;;;;;;4148381;28;20069;-46
2021/09/18 10:14:46;;;;;;;9.13;7.65;;;24.90;60.10;;;;;;4158628;28;20052;-47
2021/09/18 10:16:50;;;;;;;11.77;8.25;;;24.90;60.00;;;;;;4159142;28;20097;-47
2021/09/18 10:18:58;;;;;;;11.38;7.55;;;24.90;60.00;;;;;;4148539;28;20051;-44
2021/09/18 10:23:25;;;;;;;11.50;7.10;;;24.90;60.10;;;;;;4165316;28;20069;-46
2021/09/18 10:25:33;;;;;;;10.18;6.95;;;24.90;60.00;;;;;;4165573;28;20097;-46
2021/09/18 10:27:35;;;;;;;14.02;7.80;;;24.90;60.50;;;;;;4164671;28;20110;-49
2021/09/18 10:29:39;;;;;;;9.95;7.10;;;25.00;60.10;;;;;;4168491;28;20073;-50
2021/09/18 10:32:01;;;;;;;14.93;7.95;;;25.00;60.10;;;;;;4167848;28;20030;-47
2021/09/18 10:34:21;;;;;;;16.60;6.97;;;24.90;60.10;;;;;;4161987;28;20072;-45
2021/09/18 10:36:29;;;;;;;16.30;8.18;;;24.90;60.20;;;;;;4135045;28;20057;-54
2021/09/18 10:38:35;;;;;;;19.10;8.90;;;24.90;59.00;;;;;;4152584;28;20066;-52
2021/09/18 10:40:57;;;;;;;12.50;8.45;;;24.80;59.60;;;;;;4152707;28;20062;-50
2021/09/18 10:42:59;;;;;;;16.92;8.70;;;24.70;60.00;;;;;;4152520;28;20068;-51
2021/09/18 10:45:03;;;;;;;13.93;8.80;;;24.60;60.10;;;;;;4158103;28;20038;-44
2021/09/18 10:47:05;;;;;;;11.20;7.95;;;24.60;60.20;;;;;;4165146;28;20060;-46
2021/09/18 10:49:37;;;;;;;12.40;8.60;;;24.70;60.30;;;;;;4159271;28;20038;-47